sensor_id;sensor_type;location;lat;lon;timestamp;temperature;humidity
19947;DHT22;10135;50.702;7.276;2023-08-01T05:02:13;19.80;76.10
19947;DHT22;10135;50.702;7.276;2023-08-01T05:04:14;19.80;76.10
19947;DHT22;10135;50.702;7.276;2023-08-01T05:06:15;19.80;76.10
19947;DHT22;10135;50.702;7.276;2023-08-01T05:08:15;19.80;76.10
19947;DHT22;10135;50.702;7.276;2023-08-01T05:10:16;19.80;76.10
19947;DHT22;10135;50.702;7.276;2023-08-01T05:12:17;19.80;76.10
19947;DHT22;10135;50.702;7.276;2023-08-01T05:14:17;19.80;76.00
19947;DHT22;10135;50.702;7.276;2023-08-01T05:16:18;19.80;76.00
19947;DHT22;10135;50.702;7.276;2023-08-01T05:18:19;19.80;76.00
19947;DHT22;10135;50.702;7.276;2023-08-01T05:20:19;19.80;76.00
19947;DHT22;10135;50.702;7.276;2023-08-01T05:22:20;19.80;75.90
19947;DHT22;10135;50.702;7.276;2023-08-01T05:24:21;19.80;75.90
19947;DHT22;10135;50.702;7.276;2023-08-01T05:26:21;19.80;75.80
19947;DHT22;10135;50.702;7.276;2023-08-01T05:28:22;19.80;75.60
19947;DHT22;10135;50.702;7.276;2023-08-01T05:30:24;19.70;75.50
19947;DHT22;10135;50.702;7.276;2023-08-01T05:32:25;19.70;75.40
19947;DHT22;10135;50.702;7.276;2023-08-01T05:34:26;19.70;75.50
19947;DHT22;10135;50.702;7.276;2023-08-01T05:36:26;19.70;75.50
19947;DHT22;10135;50.702;7.276;2023-08-01T05:38:27;19.70;75.50
19947;DHT22;10135;50.702;7.276;2023-08-01T05:40:27;19.70;75.50
19947;DHT22;10135;50.702;7.276;2023-08-01T05:42:28;19.60;75.50
19947;DHT22;10135;50.702;7.276;2023-08-01T05:44:29;19.60;75.50
19947;DHT22;10135;50.702;7.276;2023-08-01T05:46:29;19.60;75.50
19947;DHT22;10135;50.702;7.276;2023-08-01T05:48:30;19.60;75.60
19947;DHT22;10135;50.702;7.276;2023-08-01T05:50:31;19.70;75.60
19947;DHT22;10135;50.702;7.276;2023-08-01T05:52:31;19.60;76.40
19947;DHT22;10135;50.702;7.276;2023-08-01T05:54:33;19.70;75.70
19947;DHT22;10135;50.702;7.276;2023-08-01T05:56:34;19.70;75.70
19947;DHT22;10135;50.702;7.276;2023-08-01T05:58:35;19.70;75.70
19947;DHT22;10135;50.702;7.276;2023-08-01T06:00:35;19.70;75.70
19947;DHT22;10135;50.702;7.276;2023-08-01T06:02:36;19.70;75.70
19947;DHT22;10135;50.702;7.276;2023-08-01T06:04:37;19.70;75.70
19947;DHT22;10135;50.702;7.276;2023-08-01T06:06:39;19.80;75.80
19947;DHT22;10135;50.702;7.276;2023-08-01T06:08:39;19.80;75.70
19947;DHT22;10135;50.702;7.276;2023-08-01T06:10:40;19.80;75.70
19947;DHT22;10135;50.702;7.276;2023-08-01T06:12:41;19.80;75.70
19947;DHT22;10135;50.702;7.276;2023-08-01T06:14:41;19.80;75.80
19947;DHT22;10135;50.702;7.276;2023-08-01T06:16:42;19.90;76.00
19947;DHT22;10135;50.702;7.276;2023-08-01T06:18:43;19.90;75.90
19947;DHT22;10135;50.702;7.276;2023-08-01T06:20:43;19.90;76.00
19947;DHT22;10135;50.702;7.276;2023-08-01T06:22:44;20.00;76.00
19947;DHT22;10135;50.702;7.276;2023-08-01T06:24:45;20.00;76.10
19947;DHT22;10135;50.702;7.276;2023-08-01T06:26:45;20.10;76.10
19947;DHT22;10135;50.702;7.276;2023-08-01T06:28:46;20.10;76.10
19947;DHT22;10135;50.702;7.276;2023-08-01T06:30:47;20.20;76.20
19947;DHT22;10135;50.702;7.276;2023-08-01T06:32:47;20.30;76.10
19947;DHT22;10135;50.702;7.276;2023-08-01T06:34:48;20.30;76.10
19947;DHT22;10135;50.702;7.276;2023-08-01T06:36:49;20.40;76.10
19947;DHT22;10135;50.702;7.276;2023-08-01T06:38:49;20.40;76.00
19947;DHT22;10135;50.702;7.276;2023-08-01T06:40:50;20.50;75.90
19947;DHT22;10135;50.702;7.276;2023-08-01T06:42:51;20.60;75.90
19947;DHT22;10135;50.702;7.276;2023-08-01T06:44:51;20.60;75.80
19947;DHT22;10135;50.702;7.276;2023-08-01T06:46:52;20.70;75.70
19947;DHT22;10135;50.702;7.276;2023-08-01T06:48:53;20.70;75.60
19947;DHT22;10135;50.702;7.276;2023-08-01T06:50:53;20.70;75.40
19947;DHT22;10135;50.702;7.276;2023-08-01T06:52:54;20.70;75.30
19947;DHT22;10135;50.702;7.276;2023-08-01T06:54:55;20.80;75.20
19947;DHT22;10135;50.702;7.276;2023-08-01T06:56:55;20.80;75.10
19947;DHT22;10135;50.702;7.276;2023-08-01T06:58:56;20.80;75.00
19947;DHT22;10135;50.702;7.276;2023-08-01T07:00:57;20.80;75.00
19947;DHT22;10135;50.702;7.276;2023-08-01T07:02:58;20.80;75.00
19947;DHT22;10135;50.702;7.276;2023-08-01T07:04:58;20.80;75.10
19947;DHT22;10135;50.702;7.276;2023-08-01T07:06:59;20.80;75.10
19947;DHT22;10135;50.702;7.276;2023-08-01T07:08:59;20.80;75.10
19947;DHT22;10135;50.702;7.276;2023-08-01T07:11:00;20.80;75.10
19947;DHT22;10135;50.702;7.276;2023-08-01T07:13:01;20.80;75.10
19947;DHT22;10135;50.702;7.276;2023-08-01T07:15:04;20.90;74.90
19947;DHT22;10135;50.702;7.276;2023-08-01T07:17:05;20.90;74.90
19947;DHT22;10135;50.702;7.276;2023-08-01T07:19:06;20.90;74.80
19947;DHT22;10135;50.702;7.276;2023-08-01T07:21:07;20.90;74.80
19947;DHT22;10135;50.702;7.276;2023-08-01T07:23:08;20.90;74.80
19947;DHT22;10135;50.702;7.276;2023-08-01T07:25:09;21.00;74.70
19947;DHT22;10135;50.702;7.276;2023-08-01T07:27:09;21.00;74.60
19947;DHT22;10135;50.702;7.276;2023-08-01T07:29:10;21.00;74.50
19947;DHT22;10135;50.702;7.276;2023-08-01T07:31:11;21.00;74.50
19947;DHT22;10135;50.702;7.276;2023-08-01T07:33:12;21.00;74.40
19947;DHT22;10135;50.702;7.276;2023-08-01T07:35:13;21.00;74.20
19947;DHT22;10135;50.702;7.276;2023-08-01T07:37:14;21.00;74.10
19947;DHT22;10135;50.702;7.276;2023-08-01T07:39:15;21.00;74.00
19947;DHT22;10135;50.702;7.276;2023-08-01T07:41:16;21.00;73.80
19947;DHT22;10135;50.702;7.276;2023-08-01T07:43:17;21.00;73.80
19947;DHT22;10135;50.702;7.276;2023-08-01T07:45:17;21.00;74.50
19947;DHT22;10135;50.702;7.276;2023-08-01T07:47:19;21.00;73.80
19947;DHT22;10135;50.702;7.276;2023-08-01T07:49:20;21.00;73.80
19947;DHT22;10135;50.702;7.276;2023-08-01T07:51:21;20.90;73.60
19947;DHT22;10135;50.702;7.276;2023-08-01T07:53:21;20.90;73.70
19947;DHT22;10135;50.702;7.276;2023-08-01T07:55:22;20.90;73.70
19947;DHT22;10135;50.702;7.276;2023-08-01T07:57:23;20.80;73.70
19947;DHT22;10135;50.702;7.276;2023-08-01T07:59:23;20.80;73.80
19947;DHT22;10135;50.702;7.276;2023-08-01T08:01:24;20.80;73.80
19947;DHT22;10135;50.702;7.276;2023-08-01T08:03:24;20.80;73.80
19947;DHT22;10135;50.702;7.276;2023-08-01T08:05:25;20.80;74.00
19947;DHT22;10135;50.702;7.276;2023-08-01T08:07:26;20.80;74.00
19947;DHT22;10135;50.702;7.276;2023-08-01T08:09:26;20.90;74.00
19947;DHT22;10135;50.702;7.276;2023-08-01T08:11:27;20.90;74.10
19947;DHT22;10135;50.702;7.276;2023-08-01T08:13:28;20.90;73.90
19947;DHT22;10135;50.702;7.276;2023-08-01T08:15:29;20.90;73.90
19947;DHT22;10135;50.702;7.276;2023-08-01T08:17:33;21.00;74.10
19947;DHT22;10135;50.702;7.276;2023-08-01T08:19:34;21.10;74.30
19947;DHT22;10135;50.702;7.276;2023-08-01T08:21:35;21.20;74.30
19947;DHT22;10135;50.702;7.276;2023-08-01T08:23:35;21.30;74.80
19947;DHT22;10135;50.702;7.276;2023-08-01T08:25:36;21.50;75.00
19947;DHT22;10135;50.702;7.276;2023-08-01T08:27:37;21.80;74.60
19947;DHT22;10135;50.702;7.276;2023-08-01T08:29:38;21.90;74.00
19947;DHT22;10135;50.702;7.276;2023-08-01T08:31:38;22.00;73.40
19947;DHT22;10135;50.702;7.276;2023-08-01T08:33:39;22.00;73.10
19947;DHT22;10135;50.702;7.276;2023-08-01T08:35:39;22.00;72.90
19947;DHT22;10135;50.702;7.276;2023-08-01T08:37:40;22.10;72.70
19947;DHT22;10135;50.702;7.276;2023-08-01T08:39:41;22.10;72.50
19947;DHT22;10135;50.702;7.276;2023-08-01T08:41:50;22.10;72.50
19947;DHT22;10135;50.702;7.276;2023-08-01T08:43:56;22.10;72.10
19947;DHT22;10135;50.702;7.276;2023-08-01T08:46:00;22.10;72.00
19947;DHT22;10135;50.702;7.276;2023-08-01T08:48:10;22.00;71.80
19947;DHT22;10135;50.702;7.276;2023-08-01T08:50:18;22.00;71.30
19947;DHT22;10135;50.702;7.276;2023-08-01T08:52:19;22.00;71.70
19947;DHT22;10135;50.702;7.276;2023-08-01T08:54:21;22.00;71.70
19947;DHT22;10135;50.702;7.276;2023-08-01T08:56:22;21.90;71.60
19947;DHT22;10135;50.702;7.276;2023-08-01T08:58:24;21.90;71.50
19947;DHT22;10135;50.702;7.276;2023-08-01T09:00:25;21.90;71.20
19947;DHT22;10135;50.702;7.276;2023-08-01T09:02:28;21.90;71.10
19947;DHT22;10135;50.702;7.276;2023-08-01T09:04:32;21.80;71.00
19947;DHT22;10135;50.702;7.276;2023-08-01T09:06:48;21.80;71.80
19947;DHT22;10135;50.702;7.276;2023-08-01T09:09:04;21.80;70.40
19947;DHT22;10135;50.702;7.276;2023-08-01T09:11:09;21.80;70.70
19947;DHT22;10135;50.702;7.276;2023-08-01T09:13:10;21.80;71.00
19947;DHT22;10135;50.702;7.276;2023-08-01T09:15:10;21.70;70.90
19947;DHT22;10135;50.702;7.276;2023-08-01T09:17:13;21.80;71.00
19947;DHT22;10135;50.702;7.276;2023-08-01T09:19:21;21.80;70.80
19947;DHT22;10135;50.702;7.276;2023-08-01T09:21:23;21.80;70.50
19947;DHT22;10135;50.702;7.276;2023-08-01T09:23:25;21.80;70.70
19947;DHT22;10135;50.702;7.276;2023-08-01T09:25:31;21.80;70.60
19947;DHT22;10135;50.702;7.276;2023-08-01T09:27:35;21.80;70.20
19947;DHT22;10135;50.702;7.276;2023-08-01T09:29:36;21.70;70.50
19947;DHT22;10135;50.702;7.276;2023-08-01T09:31:40;21.80;70.40
19947;DHT22;10135;50.702;7.276;2023-08-01T09:33:42;21.80;70.00
19947;DHT22;10135;50.702;7.276;2023-08-01T09:35:43;21.80;70.40
19947;DHT22;10135;50.702;7.276;2023-08-01T09:37:46;21.80;70.30
19947;DHT22;10135;50.702;7.276;2023-08-01T09:39:53;21.80;70.40
19947;DHT22;10135;50.702;7.276;2023-08-01T09:42:00;21.80;70.00
19947;DHT22;10135;50.702;7.276;2023-08-01T09:44:02;21.90;70.00
19947;DHT22;10135;50.702;7.276;2023-08-01T09:46:03;21.90;70.20
19947;DHT22;10135;50.702;7.276;2023-08-01T09:48:07;21.90;70.00
19947;DHT22;10135;50.702;7.276;2023-08-01T09:50:09;21.90;69.70
19947;DHT22;10135;50.702;7.276;2023-08-01T09:52:11;21.90;69.50
19947;DHT22;10135;50.702;7.276;2023-08-01T09:54:12;22.00;69.60
19947;DHT22;10135;50.702;7.276;2023-08-01T09:56:14;22.00;69.50
19947;DHT22;10135;50.702;7.276;2023-08-01T09:58:17;22.00;69.50
19947;DHT22;10135;50.702;7.276;2023-08-01T10:00:22;22.10;69.60
19947;DHT22;10135;50.702;7.276;2023-08-01T10:02:25;22.10;69.50
19947;DHT22;10135;50.702;7.276;2023-08-01T10:04:31;22.10;69.20
19947;DHT22;10135;50.702;7.276;2023-08-01T10:06:37;22.20;68.80
19947;DHT22;10135;50.702;7.276;2023-08-01T10:08:39;22.20;68.90
19947;DHT22;10135;50.702;7.276;2023-08-01T10:10:41;22.30;68.90
19947;DHT22;10135;50.702;7.276;2023-08-01T10:12:45;22.30;68.80
19947;DHT22;10135;50.702;7.276;2023-08-01T10:14:48;22.30;68.50
19947;DHT22;10135;50.702;7.276;2023-08-01T10:16:49;22.30;68.60
19947;DHT22;10135;50.702;7.276;2023-08-01T10:18:52;22.40;68.60
19947;DHT22;10135;50.702;7.276;2023-08-01T10:20:54;22.40;68.40
19947;DHT22;10135;50.702;7.276;2023-08-01T10:22:56;22.50;68.30
19947;DHT22;10135;50.702;7.276;2023-08-01T10:24:59;22.50;68.10
19947;DHT22;10135;50.702;7.276;2023-08-01T10:27:19;22.50;68.10
19947;DHT22;10135;50.702;7.276;2023-08-01T10:29:20;22.50;67.30
19947;DHT22;10135;50.702;7.276;2023-08-01T10:31:21;22.50;68.10
19947;DHT22;10135;50.702;7.276;2023-08-01T10:33:33;22.50;68.20
19947;DHT22;10135;50.702;7.276;2023-08-01T10:35:35;22.60;67.30
19947;DHT22;10135;50.702;7.276;2023-08-01T10:37:44;22.60;67.90
19947;DHT22;10135;50.702;7.276;2023-08-01T10:39:57;22.50;67.50
19947;DHT22;10135;50.702;7.276;2023-08-01T10:42:00;22.60;67.30
19947;DHT22;10135;50.702;7.276;2023-08-01T10:44:12;22.60;67.90
19947;DHT22;10135;50.702;7.276;2023-08-01T10:46:14;22.60;67.70
19947;DHT22;10135;50.702;7.276;2023-08-01T10:48:15;22.60;68.10
19947;DHT22;10135;50.702;7.276;2023-08-01T10:50:17;22.60;68.00
19947;DHT22;10135;50.702;7.276;2023-08-01T10:52:20;22.70;67.90
19947;DHT22;10135;50.702;7.276;2023-08-01T10:54:27;22.70;67.70
19947;DHT22;10135;50.702;7.276;2023-08-01T10:56:28;22.80;67.90
19947;DHT22;10135;50.702;7.276;2023-08-01T10:58:31;22.80;67.80
19947;DHT22;10135;50.702;7.276;2023-08-01T11:00:32;22.90;67.70
19947;DHT22;10135;50.702;7.276;2023-08-01T11:02:32;23.00;67.50
19947;DHT22;10135;50.702;7.276;2023-08-01T11:04:33;23.00;67.20
19947;DHT22;10135;50.702;7.276;2023-08-01T11:06:46;23.00;66.90
19947;DHT22;10135;50.702;7.276;2023-08-01T11:08:48;23.00;66.00
19947;DHT22;10135;50.702;7.276;2023-08-01T11:10:49;23.00;66.70
19947;DHT22;10135;50.702;7.276;2023-08-01T11:12:50;23.10;66.70
19947;DHT22;10135;50.702;7.276;2023-08-01T11:14:51;23.20;66.70
19947;DHT22;10135;50.702;7.276;2023-08-01T11:16:54;23.20;66.50
19947;DHT22;10135;50.702;7.276;2023-08-01T11:18:55;23.20;66.20
19947;DHT22;10135;50.702;7.276;2023-08-01T11:20:57;23.20;66.40
19947;DHT22;10135;50.702;7.276;2023-08-01T11:22:59;23.30;66.40
19947;DHT22;10135;50.702;7.276;2023-08-01T11:25:01;23.40;66.30
19947;DHT22;10135;50.702;7.276;2023-08-01T11:27:02;23.40;66.20
19947;DHT22;10135;50.702;7.276;2023-08-01T11:29:03;23.50;66.20
19947;DHT22;10135;50.702;7.276;2023-08-01T11:31:11;23.50;65.90
19947;DHT22;10135;50.702;7.276;2023-08-01T11:33:14;23.60;65.20
19947;DHT22;10135;50.702;7.276;2023-08-01T11:35:19;23.70;65.80
19947;DHT22;10135;50.702;7.276;2023-08-01T11:37:20;23.80;65.50
19947;DHT22;10135;50.702;7.276;2023-08-01T11:39:21;23.90;65.60
19947;DHT22;10135;50.702;7.276;2023-08-01T11:41:23;23.90;65.40
19947;DHT22;10135;50.702;7.276;2023-08-01T11:43:25;24.00;65.20
19947;DHT22;10135;50.702;7.276;2023-08-01T11:45:25;24.00;65.00
19947;DHT22;10135;50.702;7.276;2023-08-01T11:47:26;24.10;64.90
19947;DHT22;10135;50.702;7.276;2023-08-01T11:49:27;24.10;64.50
19947;DHT22;10135;50.702;7.276;2023-08-01T11:51:29;24.20;64.50
19947;DHT22;10135;50.702;7.276;2023-08-01T11:53:30;24.20;64.20
19947;DHT22;10135;50.702;7.276;2023-08-01T11:55:34;24.20;63.80
19947;DHT22;10135;50.702;7.276;2023-08-01T11:57:36;24.20;63.40
19947;DHT22;10135;50.702;7.276;2023-08-01T11:59:46;24.20;63.60
19947;DHT22;10135;50.702;7.276;2023-08-01T12:01:49;24.10;62.50
19947;DHT22;10135;50.702;7.276;2023-08-01T12:03:53;24.10;63.40
19947;DHT22;10135;50.702;7.276;2023-08-01T12:06:04;24.10;63.20
19947;DHT22;10135;50.702;7.276;2023-08-01T12:08:09;24.00;62.20
19947;DHT22;10135;50.702;7.276;2023-08-01T12:10:14;24.00;63.10
19947;DHT22;10135;50.702;7.276;2023-08-01T12:12:15;23.90;63.00
19947;DHT22;10135;50.702;7.276;2023-08-01T12:14:16;23.90;62.90
19947;DHT22;10135;50.702;7.276;2023-08-01T12:16:17;23.80;62.80
19947;DHT22;10135;50.702;7.276;2023-08-01T12:18:22;23.80;62.80
19947;DHT22;10135;50.702;7.276;2023-08-01T12:20:24;23.70;62.80
19947;DHT22;10135;50.702;7.276;2023-08-01T12:22:24;23.70;62.90
19947;DHT22;10135;50.702;7.276;2023-08-01T12:24:25;23.70;62.90
19947;DHT22;10135;50.702;7.276;2023-08-01T12:26:26;23.70;63.10
19947;DHT22;10135;50.702;7.276;2023-08-01T12:28:27;23.70;63.00
19947;DHT22;10135;50.702;7.276;2023-08-01T12:30:27;23.80;63.10
19947;DHT22;10135;50.702;7.276;2023-08-01T12:32:28;23.80;63.10
19947;DHT22;10135;50.702;7.276;2023-08-01T12:34:29;23.90;63.20
19947;DHT22;10135;50.702;7.276;2023-08-01T12:36:29;23.90;63.00
19947;DHT22;10135;50.702;7.276;2023-08-01T12:38:30;24.00;62.90
19947;DHT22;10135;50.702;7.276;2023-08-01T12:40:31;24.00;62.80
19947;DHT22;10135;50.702;7.276;2023-08-01T12:42:31;24.10;62.60
19947;DHT22;10135;50.702;7.276;2023-08-01T12:44:32;24.10;62.50
19947;DHT22;10135;50.702;7.276;2023-08-01T12:46:32;24.10;62.30
19947;DHT22;10135;50.702;7.276;2023-08-01T12:48:33;24.20;62.10
19947;DHT22;10135;50.702;7.276;2023-08-01T12:50:34;24.20;61.90
19947;DHT22;10135;50.702;7.276;2023-08-01T12:52:34;24.20;61.80
19947;DHT22;10135;50.702;7.276;2023-08-01T12:54:35;24.10;61.70
19947;DHT22;10135;50.702;7.276;2023-08-01T12:56:36;24.10;61.50
19947;DHT22;10135;50.702;7.276;2023-08-01T12:58:37;24.00;61.50
19947;DHT22;10135;50.702;7.276;2023-08-01T13:00:40;24.00;61.60
19947;DHT22;10135;50.702;7.276;2023-08-01T13:02:41;23.90;61.50
19947;DHT22;10135;50.702;7.276;2023-08-01T13:04:42;23.90;61.70
19947;DHT22;10135;50.702;7.276;2023-08-01T13:06:44;23.90;61.80
19947;DHT22;10135;50.702;7.276;2023-08-01T13:08:45;23.90;61.70
19947;DHT22;10135;50.702;7.276;2023-08-01T13:10:45;23.80;61.80
19947;DHT22;10135;50.702;7.276;2023-08-01T13:12:46;23.80;61.70
19947;DHT22;10135;50.702;7.276;2023-08-01T13:14:47;23.80;61.80
19947;DHT22;10135;50.702;7.276;2023-08-01T13:16:48;23.70;61.80
19947;DHT22;10135;50.702;7.276;2023-08-01T13:18:48;23.70;61.80
19947;DHT22;10135;50.702;7.276;2023-08-01T13:20:49;23.70;61.80
19947;DHT22;10135;50.702;7.276;2023-08-01T13:22:51;23.80;61.60
19947;DHT22;10135;50.702;7.276;2023-08-01T13:24:51;23.70;61.10
19947;DHT22;10135;50.702;7.276;2023-08-01T13:26:52;23.70;61.00
19947;DHT22;10135;50.702;7.276;2023-08-01T13:28:53;23.80;60.90
19947;DHT22;10135;50.702;7.276;2023-08-01T13:30:53;23.80;60.70
19947;DHT22;10135;50.702;7.276;2023-08-01T13:32:54;23.80;60.40
19947;DHT22;10135;50.702;7.276;2023-08-01T13:34:55;23.70;60.10
19947;DHT22;10135;50.702;7.276;2023-08-01T13:36:55;23.80;60.10
19947;DHT22;10135;50.702;7.276;2023-08-01T13:38:56;23.80;60.00
19947;DHT22;10135;50.702;7.276;2023-08-01T13:41:00;23.80;59.90
19947;DHT22;10135;50.702;7.276;2023-08-01T13:43:01;23.80;59.40
19947;DHT22;10135;50.702;7.276;2023-08-01T13:45:02;23.80;59.90
19947;DHT22;10135;50.702;7.276;2023-08-01T13:47:03;23.80;59.90
19947;DHT22;10135;50.702;7.276;2023-08-01T13:49:04;23.90;59.90
19947;DHT22;10135;50.702;7.276;2023-08-01T13:51:05;23.90;59.80
19947;DHT22;10135;50.702;7.276;2023-08-01T13:53:06;23.90;59.70
19947;DHT22;10135;50.702;7.276;2023-08-01T13:55:10;23.90;59.80
19947;DHT22;10135;50.702;7.276;2023-08-01T13:57:11;24.00;60.00
19947;DHT22;10135;50.702;7.276;2023-08-01T13:59:12;24.10;60.10
19947;DHT22;10135;50.702;7.276;2023-08-01T14:01:12;24.10;60.00
19947;DHT22;10135;50.702;7.276;2023-08-01T14:03:13;24.10;59.90
19947;DHT22;10135;50.702;7.276;2023-08-01T14:05:14;24.20;59.80
19947;DHT22;10135;50.702;7.276;2023-08-01T14:07:15;24.20;59.70
19947;DHT22;10135;50.702;7.276;2023-08-01T14:09:16;24.20;59.60
19947;DHT22;10135;50.702;7.276;2023-08-01T14:11:17;24.20;60.00
19947;DHT22;10135;50.702;7.276;2023-08-01T14:13:18;24.20;59.10
19947;DHT22;10135;50.702;7.276;2023-08-01T14:15:18;24.20;59.00
19947;DHT22;10135;50.702;7.276;2023-08-01T14:17:19;24.20;58.90
19947;DHT22;10135;50.702;7.276;2023-08-01T14:19:20;24.20;58.90
19947;DHT22;10135;50.702;7.276;2023-08-01T14:21:20;24.20;58.70
19947;DHT22;10135;50.702;7.276;2023-08-01T14:23:22;24.20;58.70
19947;DHT22;10135;50.702;7.276;2023-08-01T14:25:22;24.20;58.70
19947;DHT22;10135;50.702;7.276;2023-08-01T14:27:23;24.20;58.60
19947;DHT22;10135;50.702;7.276;2023-08-01T14:29:24;24.20;58.50
19947;DHT22;10135;50.702;7.276;2023-08-01T14:31:26;24.20;58.50
19947;DHT22;10135;50.702;7.276;2023-08-01T14:33:26;24.20;58.50
19947;DHT22;10135;50.702;7.276;2023-08-01T14:35:28;24.10;58.20
19947;DHT22;10135;50.702;7.276;2023-08-01T14:37:28;24.10;58.10
19947;DHT22;10135;50.702;7.276;2023-08-01T14:39:30;24.10;58.10
19947;DHT22;10135;50.702;7.276;2023-08-01T14:41:30;24.00;58.00
19947;DHT22;10135;50.702;7.276;2023-08-01T14:43:31;24.00;58.00
19947;DHT22;10135;50.702;7.276;2023-08-01T14:45:32;23.90;58.00
19947;DHT22;10135;50.702;7.276;2023-08-01T14:47:33;23.90;58.00
19947;DHT22;10135;50.702;7.276;2023-08-01T14:49:34;23.90;58.00
19947;DHT22;10135;50.702;7.276;2023-08-01T14:51:35;23.90;58.00
19947;DHT22;10135;50.702;7.276;2023-08-01T14:53:36;23.80;58.00
19947;DHT22;10135;50.702;7.276;2023-08-01T14:55:36;23.80;58.20
19947;DHT22;10135;50.702;7.276;2023-08-01T14:57:37;23.80;58.70
19947;DHT22;10135;50.702;7.276;2023-08-01T14:59:38;23.70;58.50
19947;DHT22;10135;50.702;7.276;2023-08-01T15:01:38;23.70;58.60
19947;DHT22;10135;50.702;7.276;2023-08-01T15:03:39;23.60;58.60
19947;DHT22;10135;50.702;7.276;2023-08-01T15:05:40;23.60;58.70
19947;DHT22;10135;50.702;7.276;2023-08-01T15:07:41;23.50;58.70
19947;DHT22;10135;50.702;7.276;2023-08-01T15:09:42;23.40;58.80
19947;DHT22;10135;50.702;7.276;2023-08-01T15:11:43;23.40;59.00
19947;DHT22;10135;50.702;7.276;2023-08-01T15:13:44;23.30;59.00
19947;DHT22;10135;50.702;7.276;2023-08-01T15:15:45;23.30;59.00
19947;DHT22;10135;50.702;7.276;2023-08-01T15:17:45;23.30;59.10
19947;DHT22;10135;50.702;7.276;2023-08-01T15:19:46;23.30;59.10
19947;DHT22;10135;50.702;7.276;2023-08-01T15:21:47;23.30;59.30
19947;DHT22;10135;50.702;7.276;2023-08-01T15:23:48;23.30;59.40
19947;DHT22;10135;50.702;7.276;2023-08-01T15:25:56;23.40;59.40
19947;DHT22;10135;50.702;7.276;2023-08-01T15:27:59;23.30;59.30
19947;DHT22;10135;50.702;7.276;2023-08-01T15:29:59;23.40;59.40
19947;DHT22;10135;50.702;7.276;2023-08-01T15:32:00;23.40;59.30
19947;DHT22;10135;50.702;7.276;2023-08-01T15:34:01;23.50;59.40
19947;DHT22;10135;50.702;7.276;2023-08-01T15:36:04;23.50;59.20
19947;DHT22;10135;50.702;7.276;2023-08-01T15:38:06;23.50;59.10
19947;DHT22;10135;50.702;7.276;2023-08-01T15:40:07;23.50;59.00
19947;DHT22;10135;50.702;7.276;2023-08-01T15:42:08;23.50;58.90
19947;DHT22;10135;50.702;7.276;2023-08-01T15:44:09;23.40;58.80
19947;DHT22;10135;50.702;7.276;2023-08-01T15:46:10;23.40;58.90
19947;DHT22;10135;50.702;7.276;2023-08-01T15:48:11;23.40;58.90
19947;DHT22;10135;50.702;7.276;2023-08-01T15:50:12;23.30;58.80
19947;DHT22;10135;50.702;7.276;2023-08-01T15:52:13;23.30;59.00
19947;DHT22;10135;50.702;7.276;2023-08-01T15:54:13;23.30;59.00
19947;DHT22;10135;50.702;7.276;2023-08-01T15:56:14;23.20;59.00
19947;DHT22;10135;50.702;7.276;2023-08-01T15:58:15;23.20;59.10
19947;DHT22;10135;50.702;7.276;2023-08-01T16:00:16;23.10;59.00
19947;DHT22;10135;50.702;7.276;2023-08-01T16:02:16;23.00;59.00
19947;DHT22;10135;50.702;7.276;2023-08-01T16:04:17;22.90;59.70
19947;DHT22;10135;50.702;7.276;2023-08-01T16:06:18;22.80;59.00
19947;DHT22;10135;50.702;7.276;2023-08-01T16:08:19;22.80;59.10
19947;DHT22;10135;50.702;7.276;2023-08-01T16:10:20;22.70;59.20
19947;DHT22;10135;50.702;7.276;2023-08-01T16:12:21;22.60;59.30
19947;DHT22;10135;50.702;7.276;2023-08-01T16:14:21;22.50;59.40
19947;DHT22;10135;50.702;7.276;2023-08-01T16:16:22;22.40;59.50
19947;DHT22;10135;50.702;7.276;2023-08-01T16:18:23;22.30;60.20
19947;DHT22;10135;50.702;7.276;2023-08-01T16:20:23;22.20;59.70
19947;DHT22;10135;50.702;7.276;2023-08-01T16:22:24;22.20;59.90
19947;DHT22;10135;50.702;7.276;2023-08-01T16:24:25;22.00;59.90
19947;DHT22;10135;50.702;7.276;2023-08-01T16:26:26;22.00;60.10
19947;DHT22;10135;50.702;7.276;2023-08-01T16:28:26;21.90;60.30
19947;DHT22;10135;50.702;7.276;2023-08-01T16:30:27;21.80;60.50
19947;DHT22;10135;50.702;7.276;2023-08-01T16:32:29;21.70;60.60
19947;DHT22;10135;50.702;7.276;2023-08-01T16:34:30;21.70;60.60
19947;DHT22;10135;50.702;7.276;2023-08-01T16:36:31;21.70;60.80
19947;DHT22;10135;50.702;7.276;2023-08-01T16:38:31;21.60;60.90
19947;DHT22;10135;50.702;7.276;2023-08-01T16:40:32;21.50;61.00
19947;DHT22;10135;50.702;7.276;2023-08-01T16:42:32;21.50;61.10
19947;DHT22;10135;50.702;7.276;2023-08-01T16:44:33;21.50;61.30
19947;DHT22;10135;50.702;7.276;2023-08-01T16:46:35;21.40;61.30
19947;DHT22;10135;50.702;7.276;2023-08-01T16:48:36;21.40;61.40
19947;DHT22;10135;50.702;7.276;2023-08-01T16:50:36;21.40;61.40
19947;DHT22;10135;50.702;7.276;2023-08-01T16:52:37;21.40;61.40
19947;DHT22;10135;50.702;7.276;2023-08-01T16:54:38;21.40;61.50
19947;DHT22;10135;50.702;7.276;2023-08-01T16:56:38;21.30;61.50
19947;DHT22;10135;50.702;7.276;2023-08-01T16:58:39;21.30;61.50
19947;DHT22;10135;50.702;7.276;2023-08-01T17:00:40;21.30;61.60
19947;DHT22;10135;50.702;7.276;2023-08-01T17:02:40;21.30;61.70
19947;DHT22;10135;50.702;7.276;2023-08-01T17:04:43;21.30;61.80
19947;DHT22;10135;50.702;7.276;2023-08-01T17:06:44;21.30;61.90
19947;DHT22;10135;50.702;7.276;2023-08-01T17:08:45;21.30;61.90
19947;DHT22;10135;50.702;7.276;2023-08-01T17:10:46;21.30;62.00
19947;DHT22;10135;50.702;7.276;2023-08-01T17:12:46;21.30;62.10
19947;DHT22;10135;50.702;7.276;2023-08-01T17:15:13;21.30;62.10
19947;DHT22;10135;50.702;7.276;2023-08-01T17:17:42;21.30;62.30
19947;DHT22;10135;50.702;7.276;2023-08-01T17:19:43;21.30;62.00
19947;DHT22;10135;50.702;7.276;2023-08-01T17:21:43;21.30;62.10
19947;DHT22;10135;50.702;7.276;2023-08-01T17:23:44;21.30;62.10
19947;DHT22;10135;50.702;7.276;2023-08-01T17:25:45;21.30;62.30
19947;DHT22;10135;50.702;7.276;2023-08-01T17:27:49;21.30;62.30
19947;DHT22;10135;50.702;7.276;2023-08-01T17:29:52;21.20;62.50
19947;DHT22;10135;50.702;7.276;2023-08-01T17:31:56;21.20;62.40
19947;DHT22;10135;50.702;7.276;2023-08-01T17:33:56;21.20;62.60
19947;DHT22;10135;50.702;7.276;2023-08-01T17:36:30;21.20;62.60
19947;DHT22;10135;50.702;7.276;2023-08-01T17:38:52;21.20;63.00
19947;DHT22;10135;50.702;7.276;2023-08-01T17:41:26;21.20;62.60
19947;DHT22;10135;50.702;7.276;2023-08-01T17:43:27;21.20;63.20
19947;DHT22;10135;50.702;7.276;2023-08-01T17:45:28;21.20;62.70
19947;DHT22;10135;50.702;7.276;2023-08-01T17:47:28;21.20;62.80
19947;DHT22;10135;50.702;7.276;2023-08-01T17:49:29;21.20;62.90
19947;DHT22;10135;50.702;7.276;2023-08-01T17:51:30;21.20;62.90